RYR83SA EDJA-EPKK
Flight info
| Callsign | RYR83SA |
|---|---|
| Flight time | 1h 7m |
| Altitude | 35000 |
| Route | KPT4B KPT Z999 BEMKI L607 XEBIX N871 BEPAS DCT NELPA DCT PADKA |
| Aircraft | B738/M-SDE3FGILRWY/SB1 |
Departure
| Time | 2026-05-06 12:47 |
|---|---|
| Airport | Memmingen Allgau Airport (EDJA) |
Arrival
| Time | 2026-05-06 13:54 |
|---|---|
| Airport | Kraków John Paul II International Airport (EPKK) |
| Time | Latitude | Longitude | Altitude | Speed | Heading |
|---|---|---|---|---|---|
| 2026-05-06 12:23 | 47.98747 | 10.22795 | 2078 ft | 0 kts | 50° |
| 2026-05-06 12:43 | 47.98748 | 10.22806 | 2106 ft | 1 kts | 103° |
| 2026-05-06 12:44 | 47.98734 | 10.22810 | 2076 ft | 4 kts | 173° |
| 2026-05-06 12:44 | 47.98703 | 10.22768 | 2077 ft | 9 kts | 244° |
| 2026-05-06 12:44 | 47.98646 | 10.22713 | 2077 ft | 11 kts | 180° |
| 2026-05-06 12:44 | 47.98568 | 10.22715 | 2078 ft | 11 kts | 180° |
| 2026-05-06 12:45 | 47.98498 | 10.22683 | 2076 ft | 11 kts | 216° |
| 2026-05-06 12:45 | 47.98456 | 10.22594 | 2079 ft | 10 kts | 240° |
| 2026-05-06 12:45 | 47.98354 | 10.22600 | 2083 ft | 10 kts | 93° |
| 2026-05-06 12:46 | 47.98384 | 10.22701 | 2081 ft | 14 kts | 59° |
| 2026-05-06 12:46 | 47.98527 | 10.23061 | 2077 ft | 76 kts | 59° |
| 2026-05-06 12:46 | 47.98914 | 10.24034 | 2071 ft | 140 kts | 59° |
| 2026-05-06 12:46 | 47.99473 | 10.25439 | 2467 ft | 163 kts | 58° |
| 2026-05-06 12:47 | 48.00060 | 10.26942 | 3241 ft | 172 kts | 59° |
| 2026-05-06 12:47 | 48.00666 | 10.28486 | 4043 ft | 172 kts | 59° |
| 2026-05-06 12:47 | 48.01282 | 10.30036 | 4834 ft | 175 kts | 59° |
| 2026-05-06 12:47 | 48.01923 | 10.31643 | 5442 ft | 191 kts | 60° |
| 2026-05-06 12:48 | 48.02661 | 10.33492 | 5701 ft | 221 kts | 60° |
| 2026-05-06 12:48 | 48.03450 | 10.35548 | 6130 ft | 237 kts | 69° |
| 2026-05-06 12:48 | 48.03604 | 10.38015 | 6645 ft | 245 kts | 107° |
| 2026-05-06 12:48 | 48.02788 | 10.40170 | 7473 ft | 240 kts | 141° |
| 2026-05-06 12:49 | 48.01370 | 10.41411 | 8335 ft | 236 kts | 160° |
| 2026-05-06 12:49 | 47.99834 | 10.42262 | 9243 ft | 235 kts | 164° |
| 2026-05-06 12:49 | 47.98226 | 10.42755 | 10049 ft | 233 kts | 182° |
| 2026-05-06 12:49 | 47.96560 | 10.42459 | 10437 ft | 254 kts | 193° |
| 2026-05-06 12:50 | 47.94749 | 10.41844 | 10652 ft | 280 kts | 194° |
| 2026-05-06 12:50 | 47.92764 | 10.41122 | 10873 ft | 305 kts | 194° |
| 2026-05-06 12:50 | 47.90667 | 10.40371 | 11498 ft | 314 kts | 194° |
| 2026-05-06 12:50 | 47.88530 | 10.39635 | 12368 ft | 314 kts | 194° |
| 2026-05-06 12:51 | 47.86397 | 10.38915 | 13275 ft | 315 kts | 194° |
| 2026-05-06 12:51 | 47.84245 | 10.38197 | 14025 ft | 319 kts | 194° |
| 2026-05-06 12:51 | 47.82009 | 10.37964 | 14720 ft | 328 kts | 176° |
| 2026-05-06 12:51 | 47.79796 | 10.38914 | 15434 ft | 339 kts | 158° |
| 2026-05-06 12:52 | 47.77847 | 10.40995 | 16150 ft | 353 kts | 138° |
| 2026-05-06 12:52 | 47.76478 | 10.44092 | 16869 ft | 370 kts | 116° |
| 2026-05-06 12:52 | 47.75995 | 10.47910 | 17568 ft | 387 kts | 93° |
| 2026-05-06 12:52 | 47.76305 | 10.51921 | 18266 ft | 393 kts | 85° |
| 2026-05-06 12:53 | 47.76756 | 10.55940 | 18818 ft | 399 kts | 84° |
| 2026-05-06 12:53 | 47.77250 | 10.60030 | 19385 ft | 403 kts | 84° |
| 2026-05-06 12:53 | 47.77748 | 10.64156 | 19957 ft | 407 kts | 84° |
| 2026-05-06 12:53 | 47.78239 | 10.68317 | 20549 ft | 410 kts | 84° |
| 2026-05-06 12:54 | 47.78719 | 10.72508 | 21117 ft | 414 kts | 85° |
| 2026-05-06 12:54 | 47.79194 | 10.76754 | 21670 ft | 418 kts | 85° |
| 2026-05-06 12:54 | 47.79665 | 10.81037 | 22204 ft | 422 kts | 85° |
| 2026-05-06 12:54 | 47.80134 | 10.85355 | 22727 ft | 426 kts | 85° |
| 2026-05-06 12:55 | 47.80605 | 10.89722 | 23254 ft | 429 kts | 85° |
| 2026-05-06 12:55 | 47.81077 | 10.94125 | 23697 ft | 433 kts | 85° |
| 2026-05-06 12:55 | 47.81552 | 10.98569 | 24109 ft | 437 kts | 86° |
| 2026-05-06 12:55 | 47.82030 | 11.03059 | 24511 ft | 441 kts | 86° |
| 2026-05-06 12:56 | 47.82511 | 11.07591 | 24928 ft | 445 kts | 86° |
| 2026-05-06 12:56 | 47.83000 | 11.12217 | 25319 ft | 449 kts | 86° |
| 2026-05-06 12:56 | 47.83484 | 11.16816 | 25709 ft | 452 kts | 86° |
| 2026-05-06 12:56 | 47.83973 | 11.21467 | 26093 ft | 456 kts | 86° |
| 2026-05-06 12:57 | 47.84462 | 11.26149 | 26473 ft | 460 kts | 86° |
| 2026-05-06 12:57 | 47.84954 | 11.30870 | 26843 ft | 463 kts | 86° |
| 2026-05-06 12:57 | 47.85447 | 11.35627 | 27205 ft | 467 kts | 86° |
| 2026-05-06 12:57 | 47.85941 | 11.40417 | 27566 ft | 470 kts | 86° |
| 2026-05-06 12:58 | 47.86437 | 11.45240 | 27924 ft | 473 kts | 86° |
| 2026-05-06 12:58 | 47.86934 | 11.50093 | 28275 ft | 476 kts | 86° |
| 2026-05-06 12:58 | 47.87433 | 11.54982 | 28616 ft | 479 kts | 86° |
| 2026-05-06 12:58 | 47.87932 | 11.59902 | 28965 ft | 482 kts | 86° |
| 2026-05-06 12:59 | 47.88433 | 11.64860 | 29276 ft | 485 kts | 86° |
| 2026-05-06 12:59 | 47.88934 | 11.69842 | 29596 ft | 488 kts | 86° |
| 2026-05-06 12:59 | 47.89435 | 11.74851 | 29902 ft | 490 kts | 86° |
| 2026-05-06 12:59 | 47.89938 | 11.79893 | 30174 ft | 492 kts | 86° |
| 2026-05-06 13:00 | 47.90441 | 11.84954 | 30441 ft | 495 kts | 87° |
| 2026-05-06 13:00 | 47.90943 | 11.90034 | 30726 ft | 497 kts | 87° |
| 2026-05-06 13:00 | 47.91444 | 11.95126 | 31081 ft | 496 kts | 87° |
| 2026-05-06 13:00 | 47.91943 | 12.00218 | 31445 ft | 496 kts | 87° |
| 2026-05-06 13:01 | 47.92439 | 12.05299 | 31769 ft | 496 kts | 87° |
| 2026-05-06 13:01 | 47.92933 | 12.10400 | 32074 ft | 497 kts | 87° |
| 2026-05-06 13:01 | 47.93662 | 12.15461 | 32373 ft | 505 kts | 75° |
| 2026-05-06 13:01 | 47.95141 | 12.20243 | 32695 ft | 512 kts | 61° |
| 2026-05-06 13:02 | 47.97306 | 12.24544 | 33055 ft | 514 kts | 46° |
| 2026-05-06 13:02 | 47.99994 | 12.28064 | 33381 ft | 514 kts | 38° |
| 2026-05-06 13:02 | 48.02808 | 12.31346 | 33682 ft | 514 kts | 37° |
| 2026-05-06 13:02 | 48.05622 | 12.34634 | 34018 ft | 513 kts | 38° |
| 2026-05-06 13:03 | 48.08381 | 12.37984 | 34430 ft | 509 kts | 39° |
| 2026-05-06 13:03 | 48.11093 | 12.41359 | 34752 ft | 507 kts | 39° |
| 2026-05-06 13:03 | 48.13794 | 12.44750 | 34732 ft | 507 kts | 39° |
| 2026-05-06 13:04 | 48.18270 | 12.50376 | 34755 ft | 504 kts | 39° |
| 2026-05-06 13:04 | 48.23654 | 12.57107 | 34761 ft | 503 kts | 38° |
| 2026-05-06 13:05 | 48.29242 | 12.63413 | 34770 ft | 502 kts | 34° |
| 2026-05-06 13:05 | 48.34891 | 12.69582 | 34766 ft | 502 kts | 35° |
| 2026-05-06 13:06 | 48.40462 | 12.75894 | 34765 ft | 502 kts | 39° |
| 2026-05-06 13:06 | 48.45643 | 12.83065 | 34778 ft | 502 kts | 44° |
| 2026-05-06 13:07 | 48.50687 | 12.90334 | 34769 ft | 502 kts | 43° |
| 2026-05-06 13:07 | 48.55781 | 12.97547 | 34770 ft | 502 kts | 44° |
| 2026-05-06 13:08 | 48.60654 | 13.05089 | 34771 ft | 502 kts | 46° |
| 2026-05-06 13:08 | 48.65469 | 13.12730 | 34769 ft | 502 kts | 46° |
| 2026-05-06 13:09 | 48.70315 | 13.20336 | 34775 ft | 502 kts | 45° |
| 2026-05-06 13:09 | 48.75169 | 13.27918 | 34776 ft | 501 kts | 45° |
| 2026-05-06 13:10 | 48.80017 | 13.35510 | 34771 ft | 501 kts | 45° |
| 2026-05-06 13:10 | 48.84854 | 13.43115 | 34784 ft | 501 kts | 46° |
| 2026-05-06 13:11 | 48.89438 | 13.51049 | 34772 ft | 500 kts | 57° |
| 2026-05-06 13:11 | 48.92573 | 13.60395 | 34792 ft | 495 kts | 70° |
| 2026-05-06 13:12 | 48.95123 | 13.70117 | 34776 ft | 495 kts | 71° |
| 2026-05-06 13:12 | 48.97681 | 13.79852 | 34786 ft | 496 kts | 70° |
| 2026-05-06 13:13 | 49.00284 | 13.89588 | 34777 ft | 496 kts | 70° |
| 2026-05-06 13:13 | 49.02916 | 13.99387 | 34775 ft | 497 kts | 70° |
| 2026-05-06 13:14 | 49.05522 | 14.09130 | 34783 ft | 496 kts | 70° |
| 2026-05-06 13:14 | 49.08114 | 14.18875 | 34778 ft | 496 kts | 70° |
| 2026-05-06 13:15 | 49.10699 | 14.28635 | 34775 ft | 496 kts | 70° |
| 2026-05-06 13:15 | 49.13274 | 14.38403 | 34781 ft | 496 kts | 70° |
| 2026-05-06 13:16 | 49.15841 | 14.48178 | 34772 ft | 495 kts | 70° |
| 2026-05-06 13:16 | 49.18396 | 14.57952 | 34772 ft | 495 kts | 70° |
| 2026-05-06 13:17 | 49.20939 | 14.67718 | 34772 ft | 494 kts | 70° |
| 2026-05-06 13:17 | 49.23471 | 14.77490 | 34775 ft | 494 kts | 70° |
| 2026-05-06 13:18 | 49.25993 | 14.87257 | 34779 ft | 494 kts | 70° |
| 2026-05-06 13:18 | 49.28488 | 14.97042 | 34778 ft | 493 kts | 72° |
| 2026-05-06 13:19 | 49.30676 | 15.06976 | 34778 ft | 491 kts | 75° |
| 2026-05-06 13:19 | 49.32721 | 15.16962 | 34784 ft | 491 kts | 75° |
| 2026-05-06 13:20 | 49.34773 | 15.26929 | 34785 ft | 490 kts | 75° |
| 2026-05-06 13:20 | 49.36861 | 15.36955 | 34786 ft | 490 kts | 75° |
| 2026-05-06 13:21 | 49.38937 | 15.46909 | 34788 ft | 489 kts | 75° |
| 2026-05-06 13:21 | 49.41003 | 15.56858 | 34795 ft | 489 kts | 75° |
| 2026-05-06 13:22 | 49.43058 | 15.66812 | 34791 ft | 489 kts | 75° |
| 2026-05-06 13:22 | 49.45100 | 15.76760 | 34799 ft | 489 kts | 75° |
| 2026-05-06 13:23 | 49.47138 | 15.86740 | 34793 ft | 489 kts | 75° |
| 2026-05-06 13:23 | 49.49165 | 15.96711 | 34802 ft | 488 kts | 75° |
| 2026-05-06 13:24 | 49.51182 | 16.06690 | 34803 ft | 489 kts | 75° |
| 2026-05-06 13:24 | 49.53193 | 16.16685 | 34801 ft | 489 kts | 75° |
| 2026-05-06 13:25 | 49.55195 | 16.26690 | 34805 ft | 489 kts | 75° |
| 2026-05-06 13:25 | 49.57203 | 16.36768 | 34810 ft | 489 kts | 75° |
| 2026-05-06 13:26 | 49.59189 | 16.46797 | 34805 ft | 489 kts | 75° |
| 2026-05-06 13:26 | 49.61167 | 16.56831 | 34808 ft | 489 kts | 75° |
| 2026-05-06 13:27 | 49.63136 | 16.66876 | 34802 ft | 489 kts | 75° |
| 2026-05-06 13:27 | 49.65096 | 16.76927 | 34807 ft | 489 kts | 75° |
| 2026-05-06 13:28 | 49.67048 | 16.86990 | 34813 ft | 489 kts | 75° |
| 2026-05-06 13:28 | 49.68989 | 16.97043 | 34799 ft | 486 kts | 75° |
| 2026-05-06 13:28 | 49.69939 | 17.01976 | 34783 ft | 471 kts | 75° |
| 2026-05-06 13:29 | 49.70858 | 17.06756 | 34784 ft | 457 kts | 76° |
| 2026-05-06 13:29 | 49.71746 | 17.11394 | 34786 ft | 443 kts | 76° |
| 2026-05-06 13:29 | 49.72605 | 17.15891 | 34790 ft | 430 kts | 76° |
| 2026-05-06 13:29 | 49.73437 | 17.20259 | 34789 ft | 418 kts | 76° |
| 2026-05-06 13:30 | 49.74243 | 17.24503 | 34789 ft | 406 kts | 76° |
| 2026-05-06 13:30 | 49.75036 | 17.28692 | 34372 ft | 409 kts | 76° |
| 2026-05-06 13:30 | 49.75846 | 17.32999 | 33418 ft | 425 kts | 76° |
| 2026-05-06 13:30 | 49.76699 | 17.37554 | 31960 ft | 449 kts | 76° |
| 2026-05-06 13:31 | 49.77590 | 17.42323 | 30538 ft | 473 kts | 77° |
| 2026-05-06 13:31 | 49.78517 | 17.47274 | 29630 ft | 481 kts | 77° |
| 2026-05-06 13:31 | 49.79445 | 17.52221 | 29119 ft | 476 kts | 77° |
| 2026-05-06 13:31 | 49.80361 | 17.57098 | 28712 ft | 468 kts | 77° |
| 2026-05-06 13:32 | 49.81261 | 17.61906 | 28238 ft | 463 kts | 77° |
| 2026-05-06 13:32 | 49.82147 | 17.66670 | 27686 ft | 460 kts | 77° |
| 2026-05-06 13:32 | 49.83028 | 17.71423 | 27181 ft | 456 kts | 77° |
| 2026-05-06 13:32 | 49.83897 | 17.76128 | 26701 ft | 452 kts | 77° |
| 2026-05-06 13:33 | 49.84756 | 17.80793 | 26251 ft | 448 kts | 77° |
| 2026-05-06 13:33 | 49.85605 | 17.85415 | 25810 ft | 444 kts | 77° |
| 2026-05-06 13:33 | 49.86444 | 17.89992 | 25368 ft | 440 kts | 77° |
| 2026-05-06 13:33 | 49.87276 | 17.94540 | 24933 ft | 437 kts | 77° |
| 2026-05-06 13:34 | 49.88100 | 17.99059 | 24512 ft | 434 kts | 77° |
| 2026-05-06 13:34 | 49.88915 | 18.03540 | 24069 ft | 431 kts | 77° |
| 2026-05-06 13:34 | 49.89725 | 18.08001 | 23637 ft | 428 kts | 77° |
| 2026-05-06 13:34 | 49.90525 | 18.12424 | 23166 ft | 425 kts | 77° |
| 2026-05-06 13:35 | 49.91320 | 18.16822 | 22686 ft | 422 kts | 77° |
| 2026-05-06 13:35 | 49.92105 | 18.21173 | 22228 ft | 418 kts | 77° |
| 2026-05-06 13:35 | 49.92884 | 18.25500 | 21801 ft | 413 kts | 77° |
| 2026-05-06 13:35 | 49.93538 | 18.29808 | 21367 ft | 407 kts | 85° |
| 2026-05-06 13:36 | 49.93852 | 18.34136 | 20969 ft | 401 kts | 88° |
| 2026-05-06 13:36 | 49.94025 | 18.37042 | 20681 ft | 399 kts | 88° |
| 2026-05-06 13:36 | 49.94263 | 18.41313 | 20270 ft | 396 kts | 88° |
| 2026-05-06 13:36 | 49.94495 | 18.45553 | 19863 ft | 392 kts | 88° |
| 2026-05-06 13:37 | 49.94731 | 18.49760 | 19460 ft | 390 kts | 88° |
| 2026-05-06 13:37 | 49.94970 | 18.53940 | 19051 ft | 387 kts | 88° |
| 2026-05-06 13:37 | 49.95211 | 18.58089 | 18656 ft | 385 kts | 88° |
| 2026-05-06 13:37 | 49.95453 | 18.62206 | 18263 ft | 382 kts | 88° |
| 2026-05-06 13:38 | 49.95694 | 18.66298 | 17828 ft | 380 kts | 88° |
| 2026-05-06 13:38 | 49.95933 | 18.70373 | 17391 ft | 377 kts | 88° |
| 2026-05-06 13:38 | 49.96169 | 18.74414 | 16975 ft | 374 kts | 88° |
| 2026-05-06 13:38 | 49.96402 | 18.78421 | 16574 ft | 371 kts | 88° |
| 2026-05-06 13:39 | 49.96632 | 18.82398 | 16182 ft | 369 kts | 88° |
| 2026-05-06 13:39 | 49.96859 | 18.86349 | 15791 ft | 366 kts | 88° |
| 2026-05-06 13:39 | 49.97084 | 18.90281 | 15406 ft | 364 kts | 88° |
| 2026-05-06 13:39 | 49.97305 | 18.94173 | 15023 ft | 361 kts | 88° |
| 2026-05-06 13:40 | 49.97523 | 18.98047 | 14647 ft | 359 kts | 88° |
| 2026-05-06 13:40 | 49.97739 | 19.01906 | 14264 ft | 358 kts | 87° |
| 2026-05-06 13:40 | 49.97954 | 19.05741 | 13892 ft | 356 kts | 88° |
| 2026-05-06 13:40 | 49.98165 | 19.09573 | 13495 ft | 355 kts | 87° |
| 2026-05-06 13:41 | 49.98375 | 19.13384 | 13078 ft | 354 kts | 87° |
| 2026-05-06 13:41 | 49.98583 | 19.17180 | 12677 ft | 352 kts | 88° |
| 2026-05-06 13:41 | 49.98787 | 19.20931 | 12452 ft | 344 kts | 88° |
| 2026-05-06 13:41 | 49.98989 | 19.24650 | 12026 ft | 344 kts | 88° |
| 2026-05-06 13:42 | 49.99187 | 19.28331 | 11599 ft | 344 kts | 88° |
| 2026-05-06 13:42 | 49.99384 | 19.32029 | 11231 ft | 342 kts | 88° |
| 2026-05-06 13:42 | 49.99581 | 19.35756 | 10836 ft | 340 kts | 88° |
| 2026-05-06 13:42 | 49.99774 | 19.39411 | 10461 ft | 338 kts | 88° |
| 2026-05-06 13:43 | 49.99964 | 19.43007 | 10326 ft | 328 kts | 88° |
| 2026-05-06 13:43 | 50.00149 | 19.46531 | 10029 ft | 325 kts | 88° |
| 2026-05-06 13:43 | 50.00329 | 19.49996 | 9833 ft | 318 kts | 88° |
| 2026-05-06 13:43 | 50.00504 | 19.53371 | 9764 ft | 307 kts | 88° |
| 2026-05-06 13:44 | 50.00676 | 19.56719 | 9223 ft | 313 kts | 88° |
| 2026-05-06 13:44 | 50.00847 | 19.60073 | 8881 ft | 312 kts | 88° |
| 2026-05-06 13:44 | 50.01016 | 19.63435 | 8526 ft | 311 kts | 88° |
| 2026-05-06 13:44 | 50.01184 | 19.66767 | 8202 ft | 309 kts | 88° |
| 2026-05-06 13:45 | 50.01349 | 19.70088 | 7893 ft | 308 kts | 88° |
| 2026-05-06 13:45 | 50.01677 | 19.76704 | 7242 ft | 306 kts | 87° |
| 2026-05-06 13:45 | 50.01840 | 19.80001 | 6886 ft | 306 kts | 88° |
| 2026-05-06 13:46 | 50.02001 | 19.83296 | 6551 ft | 306 kts | 88° |
| 2026-05-06 13:46 | 50.02160 | 19.86586 | 6231 ft | 304 kts | 87° |
| 2026-05-06 13:46 | 50.02320 | 19.89858 | 5917 ft | 303 kts | 87° |
| 2026-05-06 13:46 | 50.02479 | 19.93112 | 5602 ft | 301 kts | 87° |
| 2026-05-06 13:47 | 50.02634 | 19.96351 | 5293 ft | 300 kts | 88° |
| 2026-05-06 13:47 | 50.02786 | 19.99547 | 5167 ft | 292 kts | 87° |
| 2026-05-06 13:47 | 50.02937 | 20.02695 | 5042 ft | 284 kts | 87° |
| 2026-05-06 13:47 | 50.03140 | 20.05698 | 4956 ft | 275 kts | 76° |
| 2026-05-06 13:48 | 50.03996 | 20.08261 | 4943 ft | 263 kts | 46° |
| 2026-05-06 13:48 | 50.05435 | 20.09883 | 4896 ft | 252 kts | 20° |
| 2026-05-06 13:48 | 50.07095 | 20.10510 | 4775 ft | 241 kts | 359° |
| 2026-05-06 13:48 | 50.08720 | 20.10241 | 4590 ft | 231 kts | 345° |
| 2026-05-06 13:49 | 50.10193 | 20.09452 | 4355 ft | 219 kts | 320° |
| 2026-05-06 13:49 | 50.11120 | 20.07723 | 4158 ft | 203 kts | 291° |
| 2026-05-06 13:49 | 50.11434 | 20.05659 | 3914 ft | 193 kts | 269° |
| 2026-05-06 13:49 | 50.11270 | 20.03642 | 3709 ft | 185 kts | 257° |
| 2026-05-06 13:50 | 50.11004 | 20.01690 | 3503 ft | 183 kts | 256° |
| 2026-05-06 13:50 | 50.10735 | 19.99757 | 3292 ft | 183 kts | 256° |
| 2026-05-06 13:50 | 50.10466 | 19.97836 | 3079 ft | 180 kts | 257° |
| 2026-05-06 13:50 | 50.10200 | 19.95924 | 2820 ft | 183 kts | 257° |
| 2026-05-06 13:51 | 50.09928 | 19.93994 | 2578 ft | 182 kts | 256° |
| 2026-05-06 13:51 | 50.09665 | 19.92097 | 2354 ft | 178 kts | 256° |
| 2026-05-06 13:51 | 50.09405 | 19.90221 | 2120 ft | 176 kts | 255° |
| 2026-05-06 13:51 | 50.09154 | 19.88399 | 1902 ft | 167 kts | 257° |
| 2026-05-06 13:52 | 50.08919 | 19.86706 | 1676 ft | 154 kts | 257° |
| 2026-05-06 13:52 | 50.08703 | 19.85146 | 1497 ft | 141 kts | 255° |
| 2026-05-06 13:52 | 50.08505 | 19.83730 | 1318 ft | 134 kts | 255° |
| 2026-05-06 13:52 | 50.08302 | 19.82315 | 1138 ft | 132 kts | 257° |
| 2026-05-06 13:53 | 50.08117 | 19.80961 | 965 ft | 130 kts | 256° |
| 2026-05-06 13:53 | 50.07921 | 19.79550 | 807 ft | 134 kts | 257° |
| 2026-05-06 13:53 | 50.07753 | 19.78336 | 800 ft | 84 kts | 258° |
| 2026-05-06 13:53 | 50.07663 | 19.77686 | 798 ft | 51 kts | 258° |
| 2026-05-06 13:54 | 50.07594 | 19.77195 | 801 ft | 43 kts | 258° |
| 2026-05-06 13:54 | 50.07547 | 19.76880 | 801 ft | 15 kts | 240° |
| 2026-05-06 13:54 | 50.07455 | 19.76853 | 800 ft | 15 kts | 168° |
| 2026-05-06 13:54 | 50.07353 | 19.76887 | 799 ft | 15 kts | 167° |
| 2026-05-06 13:55 | 50.07314 | 19.77008 | 799 ft | 16 kts | 77° |
| 2026-05-06 13:55 | 50.07342 | 19.77207 | 799 ft | 23 kts | 77° |
| 2026-05-06 13:55 | 50.07380 | 19.77489 | 799 ft | 30 kts | 78° |
| 2026-05-06 13:55 | 50.07426 | 19.77815 | 799 ft | 32 kts | 77° |
| 2026-05-06 13:56 | 50.07474 | 19.78160 | 799 ft | 33 kts | 78° |
| 2026-05-06 13:56 | 50.07522 | 19.78507 | 799 ft | 32 kts | 77° |
| 2026-05-06 13:56 | 50.07569 | 19.78836 | 799 ft | 30 kts | 77° |
| 2026-05-06 13:56 | 50.07610 | 19.79135 | 799 ft | 28 kts | 78° |
| 2026-05-06 13:57 | 50.07650 | 19.79425 | 799 ft | 27 kts | 78° |
| 2026-05-06 13:57 | 50.07688 | 19.79697 | 799 ft | 25 kts | 78° |
| 2026-05-06 13:57 | 50.07678 | 19.79874 | 799 ft | 15 kts | 155° |
| 2026-05-06 13:57 | 50.07581 | 19.79909 | 799 ft | 14 kts | 168° |
| 2026-05-06 13:58 | 50.07512 | 19.79985 | 799 ft | 14 kts | 92° |
| 2026-05-06 13:58 | 50.07530 | 19.80125 | 799 ft | 13 kts | 77° |
| 2026-05-06 13:58 | 50.07549 | 19.80260 | 799 ft | 13 kts | 78° |
| 2026-05-06 13:58 | 50.07583 | 19.80299 | 799 ft | 6 kts | 352° |
| 2026-05-06 13:59 | 50.07603 | 19.80292 | 799 ft | 0 kts | 347° |